createdAt,value
2022-11-22T00:00:50.294Z,2.03
2022-11-22T00:03:18.094Z,2.10
2022-11-22T00:05:45.918Z,1.80
2022-11-22T00:08:13.733Z,2.45
2022-11-22T00:10:41.432Z,2.00
2022-11-22T00:13:09.237Z,2.08
2022-11-22T00:15:37.116Z,1.70
2022-11-22T00:18:06.361Z,2.33
2022-11-22T00:20:34.661Z,1.98
2022-11-22T00:23:02.670Z,2.28
2022-11-22T00:25:30.389Z,2.35
2022-11-22T00:27:58.111Z,1.88
2022-11-22T00:30:25.802Z,2.28
2022-11-22T00:32:53.531Z,2.05
2022-11-22T00:35:22.691Z,1.77
2022-11-22T00:37:50.424Z,1.98
2022-11-22T00:40:18.159Z,1.85
2022-11-22T00:42:45.892Z,1.90
2022-11-22T00:45:13.605Z,1.70
2022-11-22T00:47:41.258Z,1.92
2022-11-22T00:50:10.594Z,2.55
2022-11-22T00:52:39.660Z,1.75
2022-11-22T00:55:08.436Z,1.90
2022-11-22T00:57:36.090Z,1.70
2022-11-22T01:00:04.055Z,2.00
2022-11-22T01:02:31.709Z,1.77
2022-11-22T01:04:59.432Z,1.83
2022-11-22T01:07:27.249Z,1.75
2022-11-22T01:09:56.388Z,2.38
2022-11-22T01:12:24.074Z,1.80
2022-11-22T01:14:51.721Z,1.88
2022-11-22T01:17:19.394Z,1.80
2022-11-22T01:19:47.244Z,1.73
2022-11-22T01:22:14.977Z,1.90
2022-11-22T01:24:42.683Z,1.80
2022-11-22T01:27:11.685Z,1.83
2022-11-22T01:29:39.356Z,1.80
2022-11-22T01:32:07.227Z,1.88
2022-11-22T01:34:34.998Z,1.50
2022-11-22T01:37:02.742Z,1.77
2022-11-22T01:39:30.538Z,1.85
2022-11-22T01:41:58.334Z,1.33
2022-11-22T01:44:29.270Z,2.33
2022-11-22T01:47:00.362Z,2.00
2022-11-22T01:49:31.909Z,2.30
2022-11-22T01:52:04.083Z,1.77
2022-11-22T01:54:37.144Z,1.80
2022-11-22T01:57:08.817Z,3.03
2022-11-22T01:59:40.475Z,2.10
2022-11-22T02:02:08.494Z,2.53
2022-11-22T02:04:38.818Z,1.88
2022-11-22T02:07:12.502Z,1.98
2022-11-22T02:09:41.775Z,2.13
2022-11-22T02:12:10.950Z,2.35
2022-11-22T02:14:41.519Z,2.30
2022-11-22T02:17:09.212Z,2.30
2022-11-22T02:19:43.016Z,2.28
2022-11-22T02:22:24.381Z,2.45
2022-11-22T02:24:56.591Z,2.40
2022-11-22T02:27:26.183Z,2.53
2022-11-22T02:29:54.028Z,2.00
2022-11-22T02:32:21.969Z,1.77
2022-11-22T02:34:51.550Z,2.65
2022-11-22T02:37:23.694Z,2.88
2022-11-22T02:39:57.195Z,2.03
2022-11-22T02:42:27.150Z,2.67
2022-11-22T02:44:55.002Z,2.10
2022-11-22T02:47:22.756Z,2.17
2022-11-22T02:49:50.469Z,2.33
2022-11-22T02:52:18.626Z,2.15
2022-11-22T02:54:46.414Z,2.95
2022-11-22T02:57:14.458Z,3.00
2022-11-22T02:59:43.473Z,2.38
2022-11-22T03:02:11.304Z,2.80
2022-11-22T03:04:38.997Z,2.30
2022-11-22T03:07:06.735Z,2.45
2022-11-22T03:09:34.492Z,2.00
2022-11-22T03:12:02.141Z,2.58
2022-11-22T03:14:29.881Z,2.08
2022-11-22T03:16:58.982Z,1.95
2022-11-22T03:19:26.660Z,2.15
2022-11-22T03:21:54.376Z,2.05
2022-11-22T03:24:22.210Z,2.67
2022-11-22T03:26:51.291Z,2.33
2022-11-22T03:29:19.274Z,2.42
2022-11-22T03:31:47.028Z,3.47
2022-11-22T03:34:16.739Z,2.28
2022-11-22T03:36:44.477Z,2.38
2022-11-22T03:39:12.402Z,1.88
2022-11-22T03:41:40.100Z,2.78
2022-11-22T03:44:08.277Z,2.50
2022-11-22T03:46:35.948Z,2.70
2022-11-22T03:49:03.664Z,2.35
2022-11-22T03:51:32.692Z,1.70
2022-11-22T03:54:00.419Z,2.10
2022-11-22T03:56:28.099Z,2.33
2022-11-22T03:58:55.767Z,2.10
2022-11-22T04:01:23.653Z,2.40
2022-11-22T04:03:52.323Z,1.85
2022-11-22T04:06:19.995Z,2.95
2022-11-22T04:08:49.252Z,2.03
2022-11-22T04:11:16.966Z,2.38
2022-11-22T04:14:02.070Z,2.30
2022-11-22T04:16:29.822Z,2.08
2022-11-22T04:18:57.471Z,2.10
2022-11-22T04:21:36.409Z,2.38
2022-11-22T04:24:37.093Z,1.98
2022-11-22T04:27:04.907Z,2.25
2022-11-22T04:29:32.911Z,2.78
2022-11-22T04:32:18.701Z,2.50
2022-11-22T04:34:46.397Z,2.20
2022-11-22T04:37:14.166Z,2.92
2022-11-22T04:39:43.196Z,1.90
2022-11-22T04:42:28.723Z,2.58
2022-11-22T04:44:56.477Z,1.90
2022-11-22T04:47:45.024Z,2.33
2022-11-22T04:50:34.640Z,2.05
2022-11-22T04:53:02.320Z,2.35
2022-11-22T04:55:31.330Z,1.75
2022-11-22T04:58:00.275Z,2.53
2022-11-22T05:00:28.992Z,1.88
2022-11-22T05:02:56.899Z,2.20
2022-11-22T05:05:25.140Z,2.33
2022-11-22T05:07:52.905Z,2.20
2022-11-22T05:10:26.044Z,2.65
2022-11-22T05:12:57.216Z,2.22
2022-11-22T05:15:25.029Z,2.33
2022-11-22T05:17:52.713Z,1.70
2022-11-22T05:20:20.440Z,1.90
2022-11-22T05:23:05.898Z,2.67
2022-11-22T05:25:33.606Z,2.50
2022-11-22T05:28:02.620Z,2.35
2022-11-22T05:30:30.340Z,2.38
2022-11-22T05:32:58.007Z,2.42
2022-11-22T05:35:25.743Z,3.05
2022-11-22T05:37:53.445Z,2.17
2022-11-22T05:40:21.193Z,2.20
2022-11-22T05:42:48.870Z,2.00
2022-11-22T05:45:18.140Z,1.92
2022-11-22T05:47:45.969Z,2.05
2022-11-22T05:50:14.196Z,2.17
2022-11-22T05:52:42.097Z,1.92
2022-11-22T05:55:09.951Z,1.95
2022-11-22T05:57:37.652Z,1.63
2022-11-22T06:00:06.692Z,2.40
2022-11-22T06:02:35.797Z,1.83
2022-11-22T06:05:03.467Z,2.20
2022-11-22T06:07:31.328Z,1.65
2022-11-22T06:09:59.107Z,1.95
2022-11-22T06:12:26.801Z,1.75
2022-11-22T06:14:54.491Z,2.95
2022-11-22T06:17:22.161Z,1.50
2022-11-22T06:19:51.195Z,1.67
2022-11-22T06:22:18.925Z,2.20
2022-11-22T06:24:46.637Z,1.58
2022-11-22T06:27:14.317Z,3.28
2022-11-22T06:29:42.737Z,1.85
2022-11-22T06:32:10.413Z,1.85
2022-11-22T06:34:38.116Z,2.47
2022-11-22T06:37:07.143Z,2.20
2022-11-22T06:39:34.970Z,2.80
2022-11-22T06:42:02.674Z,2.00
2022-11-22T06:44:30.339Z,1.70
2022-11-22T06:46:58.043Z,1.67
2022-11-22T06:49:25.722Z,2.13
2022-11-22T06:51:53.421Z,1.70
2022-11-22T06:54:22.422Z,1.52
2022-11-22T06:56:50.100Z,1.63
2022-11-22T06:59:17.828Z,2.10
2022-11-22T07:01:45.563Z,1.75
2022-11-22T07:04:13.300Z,2.00
2022-11-22T07:06:41.022Z,2.47
2022-11-22T07:09:10.896Z,3.22
2022-11-22T07:11:41.181Z,2.33
2022-11-22T07:14:09.574Z,2.33
2022-11-22T07:16:38.287Z,2.20
2022-11-22T07:19:06.607Z,1.90
2022-11-22T07:21:35.281Z,1.77
2022-11-22T07:24:02.942Z,2.30
2022-11-22T07:26:30.592Z,2.00
2022-11-22T07:28:59.596Z,2.20
2022-11-22T07:31:28.186Z,1.80
2022-11-22T07:33:57.644Z,2.42
2022-11-22T07:36:29.379Z,1.88
2022-11-22T07:38:57.517Z,1.60
2022-11-22T07:41:25.432Z,1.77
2022-11-22T07:43:53.966Z,2.03
2022-11-22T07:46:26.268Z,2.05
2022-11-22T07:48:54.085Z,2.78
2022-11-22T07:51:21.869Z,1.73
2022-11-22T07:53:49.577Z,2.30
2022-11-22T07:56:17.447Z,2.00
2022-11-22T07:58:45.515Z,2.17
2022-11-22T08:01:15.101Z,2.20
2022-11-22T08:03:44.998Z,1.55
2022-11-22T08:06:14.096Z,2.03
2022-11-22T08:08:41.992Z,2.13
2022-11-22T08:11:10.099Z,1.95
2022-11-22T08:13:38.589Z,1.95
2022-11-22T08:16:08.580Z,1.92
2022-11-22T08:18:36.778Z,1.70
2022-11-22T08:21:10.688Z,1.67
2022-11-22T08:23:39.474Z,1.42
2022-11-22T08:26:09.066Z,1.83
2022-11-22T08:28:37.068Z,1.92
2022-11-22T08:31:07.266Z,1.70
2022-11-22T08:33:35.261Z,1.98
2022-11-22T08:36:02.952Z,1.70
2022-11-22T08:38:32.269Z,1.60
2022-11-22T08:41:00.238Z,2.45
2022-11-22T08:43:27.953Z,1.60
2022-11-22T08:45:57.810Z,2.53
2022-11-22T08:48:26.049Z,2.30
2022-11-22T08:50:55.260Z,1.98
2022-11-22T08:53:23.259Z,1.38
2022-11-22T08:55:52.850Z,2.08
2022-11-22T08:58:20.755Z,1.65
2022-11-22T09:00:48.484Z,2.17
2022-11-22T09:03:16.266Z,1.40
2022-11-22T09:08:35.920Z,1.33
2022-11-22T09:11:10.055Z,1.73
2022-11-22T09:13:38.213Z,1.70
2022-11-22T09:16:08.017Z,1.83
2022-11-22T09:18:36.243Z,1.60
2022-11-22T09:21:05.838Z,1.90
2022-11-22T09:23:34.185Z,1.63
2022-11-22T09:26:04.613Z,1.23
2022-11-22T09:28:34.200Z,1.58
2022-11-22T09:31:02.431Z,1.58
2022-11-22T09:33:30.514Z,2.17
2022-11-22T09:36:02.408Z,1.58
2022-11-22T09:38:30.820Z,1.30
2022-11-22T09:40:59.846Z,1.70
2022-11-22T09:43:40.755Z,1.58
2022-11-22T09:46:26.803Z,1.98
2022-11-22T09:49:16.090Z,1.73
2022-11-22T09:51:50.475Z,1.60
2022-11-22T09:54:23.402Z,1.23
2022-11-22T09:56:55.130Z,1.40
2022-11-22T09:59:28.710Z,1.27
2022-11-22T10:02:17.614Z,2.00
2022-11-22T10:04:52.842Z,1.17
2022-11-22T10:07:25.443Z,2.35
2022-11-22T10:10:00.935Z,1.50
2022-11-22T10:12:36.849Z,1.17
2022-11-22T10:15:15.139Z,1.73
2022-11-22T10:17:53.783Z,1.40
2022-11-22T10:20:23.304Z,1.55
2022-11-22T10:22:51.580Z,1.10
2022-11-22T10:25:21.955Z,1.63
2022-11-22T10:27:57.546Z,1.38
2022-11-22T10:30:36.553Z,1.30
2022-11-22T10:33:14.106Z,1.25
2022-11-22T10:35:59.049Z,1.50
2022-11-22T10:38:49.395Z,1.50
2022-11-22T10:41:29.003Z,1.75
2022-11-22T10:44:08.549Z,1.35
2022-11-22T10:46:51.101Z,1.02
2022-11-22T10:49:31.086Z,1.30
2022-11-22T10:52:05.180Z,1.23
2022-11-22T10:54:43.353Z,1.30
2022-11-22T10:57:17.517Z,1.42
2022-11-22T10:59:59.955Z,1.55
2022-11-22T11:02:57.754Z,1.13
2022-11-22T11:05:33.412Z,0.93
2022-11-22T11:08:21.992Z,1.23
2022-11-22T11:10:49.386Z,1.00
2022-11-22T11:13:22.775Z,1.58
2022-11-22T11:15:56.182Z,1.00
2022-11-22T11:18:31.391Z,1.55
2022-11-22T11:20:59.386Z,0.90
2022-11-22T11:23:27.116Z,1.25
2022-11-22T11:25:54.917Z,1.00
2022-11-22T11:28:24.496Z,0.95
2022-11-22T11:30:55.056Z,1.10
2022-11-22T11:33:29.761Z,0.95
2022-11-22T11:36:03.381Z,0.90
2022-11-22T11:38:34.624Z,1.17
2022-11-22T11:41:27.319Z,1.15
2022-11-22T11:43:56.429Z,0.95
2022-11-22T11:46:25.737Z,1.27
2022-11-22T11:48:56.344Z,0.82
2022-11-22T11:51:39.983Z,1.10
2022-11-22T11:54:12.170Z,1.05
2022-11-22T11:56:53.058Z,0.98
2022-11-22T11:59:22.590Z,0.70
2022-11-22T12:01:55.519Z,1.30
2022-11-22T12:04:28.498Z,0.90
2022-11-22T12:07:03.489Z,0.95
2022-11-22T12:09:37.729Z,1.00
2022-11-22T12:12:36.939Z,1.02
2022-11-22T12:15:14.721Z,1.00
2022-11-22T12:17:52.033Z,1.00
2022-11-22T12:20:26.187Z,0.85
2022-11-22T12:23:09.329Z,0.80
2022-11-22T12:25:39.491Z,1.02
2022-11-22T12:28:18.668Z,1.17
2022-11-22T12:30:50.605Z,0.70
2022-11-22T12:33:21.931Z,0.80
2022-11-22T12:35:54.012Z,0.70
2022-11-22T12:38:24.941Z,0.90
2022-11-22T12:40:55.546Z,0.85
2022-11-22T12:43:25.793Z,0.93
2022-11-22T12:45:56.525Z,0.73
2022-11-22T12:48:31.221Z,0.75
2022-11-22T12:51:04.645Z,0.80
2022-11-22T12:53:36.741Z,0.90
2022-11-22T12:56:13.994Z,0.80
2022-11-22T12:58:51.033Z,0.80
2022-11-22T13:01:26.257Z,0.80
2022-11-22T13:03:58.296Z,0.82
2022-11-22T13:06:45.726Z,0.73
2022-11-22T13:09:18.820Z,0.60
2022-11-22T13:11:52.082Z,0.55
2022-11-22T13:14:24.696Z,0.68
2022-11-22T13:16:52.445Z,0.68
2022-11-22T13:19:25.079Z,0.90
2022-11-22T13:22:08.875Z,0.85
2022-11-22T13:24:49.058Z,0.60
2022-11-22T13:27:21.491Z,0.68
2022-11-22T13:29:53.919Z,0.50
2022-11-22T13:32:23.905Z,0.80
2022-11-22T13:35:05.882Z,0.70
2022-11-22T13:37:38.363Z,0.82
2022-11-22T13:40:24.820Z,0.60
2022-11-22T13:43:25.266Z,0.70
2022-11-22T13:45:54.710Z,0.50
2022-11-22T13:48:55.929Z,0.60
2022-11-22T13:51:51.770Z,0.60
2022-11-22T13:54:56.921Z,0.68
2022-11-22T13:57:33.286Z,0.70
2022-11-22T14:00:30.718Z,0.70
2022-11-22T14:03:22.553Z,0.90
2022-11-22T14:05:52.591Z,0.68
2022-11-22T14:08:30.907Z,0.88
2022-11-22T14:11:18.767Z,0.80
2022-11-22T14:13:57.252Z,0.60
2022-11-22T14:16:40.663Z,1.25
2022-11-22T14:19:21.365Z,0.77
2022-11-22T14:22:05.064Z,0.52
2022-11-22T14:24:50.303Z,0.60
2022-11-22T14:27:27.669Z,0.77
2022-11-22T14:30:14.152Z,0.40
2022-11-22T14:32:50.171Z,0.73
2022-11-22T14:35:30.313Z,0.70
2022-11-22T14:38:21.227Z,0.80
2022-11-22T14:40:48.948Z,0.40
2022-11-22T14:43:37.127Z,0.63
2022-11-22T14:46:37.220Z,0.80
2022-11-22T14:49:07.638Z,0.73
2022-11-22T14:51:35.470Z,0.70
2022-11-22T14:54:12.263Z,0.82
2022-11-22T14:59:30.975Z,0.50
2022-11-22T15:02:20.353Z,0.75
2022-11-22T15:09:23.698Z,0.50
2022-11-22T15:09:23.878Z,0.50
2022-11-22T15:11:30.808Z,0.80
2022-11-22T15:14:17.431Z,0.40
2022-11-22T15:57:26.407Z,0.40
2022-11-22T15:59:56.165Z,0.68
2022-11-22T16:02:27.584Z,0.80
2022-11-22T16:06:07.592Z,0.90
2022-11-22T16:07:49.154Z,0.70
2022-11-22T16:10:22.028Z,0.65
2022-11-22T16:12:50.946Z,0.80
2022-11-22T16:15:30.482Z,0.77
2022-11-22T16:18:08.517Z,0.77
2022-11-22T16:20:37.457Z,0.88
2022-11-22T16:23:19.820Z,0.90
2022-11-22T16:25:50.842Z,0.73
2022-11-22T16:28:27.656Z,0.80
2022-11-22T16:33:24.586Z,0.90
2022-11-22T16:35:56.509Z,0.95
2022-11-22T16:38:25.241Z,1.42
2022-11-22T16:40:57.123Z,0.70
2022-11-22T16:43:27.060Z,1.20
2022-11-22T16:45:54.753Z,0.90
2022-11-22T16:48:31.951Z,1.20
2022-11-22T16:51:06.092Z,1.52
2022-11-22T16:53:42.890Z,1.05
2022-11-22T16:58:42.720Z,0.98
2022-11-22T17:01:12.559Z,1.20
2022-11-22T17:03:41.007Z,1.30
2022-11-22T17:06:13.292Z,1.25
2022-11-22T17:08:40.959Z,1.23
2022-11-22T17:11:12.553Z,1.17
2022-11-22T17:13:40.223Z,1.27
2022-11-22T17:16:09.840Z,1.35
2022-11-22T17:18:37.972Z,0.98
2022-11-22T17:21:06.880Z,1.65
2022-11-22T17:23:36.777Z,1.35
2022-11-22T17:26:05.041Z,1.45
2022-11-22T17:28:34.025Z,1.33
2022-11-22T17:31:02.866Z,1.33
2022-11-22T17:33:30.813Z,1.50
2022-11-22T17:35:58.920Z,1.42
2022-11-22T17:38:26.621Z,1.42
2022-11-22T17:41:00.389Z,1.55
2022-11-22T17:43:28.104Z,1.48
2022-11-22T17:45:57.122Z,1.95
2022-11-22T17:48:24.798Z,2.08
2022-11-22T17:50:52.526Z,2.72
2022-11-22T17:53:20.175Z,2.20
2022-11-22T17:56:09.507Z,2.22
2022-11-22T17:58:36.659Z,1.60
2022-11-22T18:01:06.998Z,2.00
2022-11-22T18:03:35.080Z,2.38
2022-11-22T18:06:02.903Z,1.83
2022-11-22T18:08:30.950Z,2.08
2022-11-22T18:11:00.661Z,2.03
2022-11-22T18:13:29.811Z,2.17
2022-11-22T18:16:03.188Z,1.75
2022-11-22T18:18:55.624Z,1.90
2022-11-22T18:21:20.840Z,1.92
2022-11-22T18:23:48.601Z,1.42
2022-11-22T18:26:38.248Z,2.38
2022-11-22T18:31:52.945Z,1.70
2022-11-22T18:34:22.749Z,1.65
2022-11-22T18:37:06.217Z,1.65
2022-11-22T18:39:36.897Z,1.90
2022-11-22T18:42:06.436Z,2.10
2022-11-22T18:44:34.730Z,1.77
2022-11-22T18:47:02.579Z,1.95
2022-11-22T18:49:32.015Z,1.77
2022-11-22T18:52:00.200Z,2.08
2022-11-22T18:54:27.982Z,1.77
2022-11-22T18:56:55.695Z,1.90
2022-11-22T18:59:23.409Z,1.80
2022-11-22T19:01:51.174Z,1.92
2022-11-22T19:04:18.912Z,2.10
2022-11-22T19:06:47.938Z,1.85
2022-11-22T19:09:15.666Z,1.88
2022-11-22T19:11:43.341Z,2.30
2022-11-22T19:14:11.045Z,2.22
2022-11-22T19:16:38.757Z,1.50
2022-11-22T19:19:08.099Z,2.13
2022-11-22T19:21:35.850Z,1.77
2022-11-22T19:24:05.520Z,2.67
2022-11-22T19:26:33.175Z,2.08
2022-11-22T19:29:02.484Z,2.05
2022-11-22T19:31:31.415Z,2.25
2022-11-22T19:33:59.884Z,1.90
2022-11-22T19:36:33.393Z,1.90
2022-11-22T19:39:02.258Z,2.80
2022-11-22T19:41:31.928Z,2.00
2022-11-22T19:43:59.731Z,2.25
2022-11-22T19:46:27.517Z,2.92
2022-11-22T19:48:56.556Z,2.17
2022-11-22T19:51:25.149Z,2.42
2022-11-22T19:53:54.450Z,2.70
2022-11-22T19:56:22.285Z,2.28
2022-11-22T19:58:53.337Z,2.22
2022-11-22T20:01:22.206Z,2.30
2022-11-22T20:03:53.049Z,2.80
2022-11-22T20:06:21.539Z,2.00
2022-11-22T20:08:49.246Z,3.17
2022-11-22T20:11:19.057Z,2.55
2022-11-22T20:13:49.214Z,2.30
2022-11-22T20:16:21.037Z,2.35
2022-11-22T20:18:49.326Z,2.17
2022-11-22T20:21:21.893Z,2.10
2022-11-22T20:23:50.206Z,2.42
2022-11-22T20:26:18.687Z,2.15
2022-11-22T20:28:47.201Z,2.22
2022-11-22T20:31:16.448Z,2.30
2022-11-22T20:33:47.053Z,2.63
2022-11-22T20:36:16.854Z,1.92
2022-11-22T20:38:46.063Z,2.40
2022-11-22T20:41:15.351Z,1.83
2022-11-22T20:43:43.663Z,2.33
2022-11-22T20:46:13.370Z,2.53
2022-11-22T20:48:42.887Z,2.00
2022-11-22T20:51:13.606Z,1.83
2022-11-22T20:53:42.000Z,2.28
2022-11-22T20:56:10.003Z,2.03
2022-11-22T20:58:37.734Z,2.75
2022-11-22T21:01:06.922Z,2.38
2022-11-22T21:03:34.921Z,2.28
2022-11-22T21:06:03.527Z,1.67
2022-11-22T21:08:34.373Z,2.00
2022-11-22T21:11:07.514Z,1.70
2022-11-22T21:13:35.545Z,1.90
2022-11-22T21:16:20.663Z,2.25
2022-11-22T21:18:51.480Z,1.80
2022-11-22T21:21:22.741Z,2.30
2022-11-22T21:23:52.799Z,2.03
2022-11-22T21:26:21.219Z,2.08
2022-11-22T21:28:49.080Z,2.03
2022-11-22T21:31:17.328Z,2.13
2022-11-22T21:33:45.682Z,1.58
2022-11-22T21:36:13.717Z,2.08
2022-11-22T21:38:41.452Z,1.80
2022-11-22T21:41:38.692Z,2.45
2022-11-22T21:44:02.055Z,1.58
2022-11-22T21:46:29.761Z,1.77
2022-11-22T21:48:57.499Z,1.80
2022-11-22T21:51:26.262Z,2.03
2022-11-22T21:53:58.625Z,2.03
2022-11-22T21:56:28.110Z,1.70
2022-11-22T21:58:55.810Z,1.58
2022-11-22T22:01:24.214Z,1.90
2022-11-22T22:03:52.141Z,2.15
2022-11-22T22:06:19.954Z,1.98
2022-11-22T22:08:47.601Z,1.80
2022-11-22T22:11:15.277Z,2.00
2022-11-22T22:13:44.501Z,1.90
2022-11-22T22:16:18.640Z,2.17
2022-11-22T22:18:47.189Z,2.03
2022-11-22T22:21:16.448Z,2.08
2022-11-22T22:23:45.038Z,1.80
2022-11-22T22:26:14.554Z,1.83
2022-11-22T22:28:42.368Z,1.70
2022-11-22T22:31:13.537Z,1.60
2022-11-22T22:33:42.346Z,2.22
2022-11-22T22:36:11.642Z,2.05
2022-11-22T22:38:39.777Z,2.38
2022-11-22T22:41:08.996Z,1.73
2022-11-22T22:43:38.558Z,1.80
2022-11-22T22:46:08.157Z,2.50
2022-11-22T22:48:37.156Z,1.63
2022-11-22T22:51:06.629Z,1.75
2022-11-22T22:53:34.340Z,2.22
2022-11-22T22:56:02.262Z,2.17
2022-11-22T22:58:29.969Z,2.80
2022-11-22T23:01:05.745Z,2.10
2022-11-22T23:03:33.490Z,2.10
2022-11-22T23:06:05.775Z,2.70
2022-11-22T23:08:33.628Z,2.28
2022-11-22T23:11:04.255Z,1.92
2022-11-22T23:13:33.046Z,1.85
2022-11-22T23:16:01.096Z,2.22
2022-11-22T23:18:29.389Z,2.00
2022-11-22T23:21:00.490Z,1.98
2022-11-22T23:23:30.153Z,2.33
2022-11-22T23:26:02.831Z,2.20
2022-11-22T23:28:30.645Z,2.67
2022-11-22T23:31:04.918Z,2.05
2022-11-22T23:33:32.639Z,2.95
2022-11-22T23:36:02.909Z,3.00
2022-11-22T23:38:32.051Z,1.95
2022-11-22T23:41:00.081Z,2.08
2022-11-22T23:43:28.152Z,2.25
2022-11-22T23:45:55.904Z,2.95
2022-11-22T23:48:23.535Z,1.95
2022-11-22T23:50:51.433Z,2.47
2022-11-22T23:53:19.080Z,1.88
2022-11-22T23:55:48.076Z,2.72
2022-11-22T23:58:15.738Z,1.85
